Time;durP1;ratioP1;P1;durP2;ratioP2;P2;SDS_P1;SDS_P2;PMS_P1;PMS_P2;Temp;Humidity;BMP_temperature;BMP_pressure;BME280_temperature;BME280_humidity;BME280_pressure;Samples;Min_cycle;Max_cycle;Signal;HPM_P1;HPM_P2
2022/01/04 00:01:16;;;;;;;27.58;11.23;;;8.40;99.90;;;;;;5023276;28;20553;-84
2022/01/04 00:03:42;;;;;;;24.60;12.95;;;8.40;99.90;;;;;;5027598;28;20051;-84
2022/01/04 00:06:10;;;;;;;23.17;11.07;;;8.50;99.90;;;;;;5052804;28;20063;-84
2022/01/04 00:08:36;;;;;;;32.03;12.00;;;8.50;99.90;;;;;;5010949;28;20051;-83
2022/01/04 00:11:09;;;;;;;25.60;11.50;;;8.50;99.90;;;;;;5046984;28;20041;-84
2022/01/04 00:13:35;;;;;;;25.65;11.20;;;8.50;99.90;;;;;;5001778;28;20041;-85
2022/01/04 00:16:03;;;;;;;28.23;11.70;;;8.50;99.90;;;;;;5037362;28;20104;-83
2022/01/04 00:18:29;;;;;;;23.08;10.82;;;8.40;99.90;;;;;;5021816;28;20036;-84
2022/01/04 00:20:55;;;;;;;27.60;11.02;;;8.40;99.90;;;;;;5017469;28;20451;-84
2022/01/04 00:23:21;;;;;;;27.15;11.10;;;8.30;99.90;;;;;;5015558;28;20037;-84
2022/01/04 00:25:48;;;;;;;28.98;11.85;;;8.40;99.90;;;;;;5033560;28;20045;-84
2022/01/04 00:28:14;;;;;;;27.90;11.05;;;8.40;99.90;;;;;;5023067;28;20119;-84
2022/01/04 00:30:41;;;;;;;29.35;12.25;;;8.40;99.90;;;;;;5029498;28;20411;-83
2022/01/04 00:33:10;;;;;;;26.83;11.50;;;8.40;99.90;;;;;;5015891;28;20566;-83
2022/01/04 00:35:36;;;;;;;26.63;11.90;;;8.40;99.90;;;;;;5017602;28;20079;-83
2022/01/04 00:38:02;;;;;;;28.73;11.25;;;8.40;99.90;;;;;;5014340;28;20033;-82
2022/01/04 00:40:28;;;;;;;25.40;11.13;;;8.40;99.90;;;;;;5019572;28;20325;-82
2022/01/04 00:42:55;;;;;;;30.00;12.40;;;8.50;99.90;;;;;;5010577;28;20123;-83
2022/01/04 00:45:26;;;;;;;28.23;12.43;;;8.50;99.90;;;;;;5011879;28;20049;-82
2022/01/04 00:50:22;;;;;;;25.50;12.02;;;8.50;99.90;;;;;;5014181;28;20304;-82
2022/01/04 00:52:49;;;;;;;34.67;12.38;;;8.50;99.90;;;;;;5013965;28;20405;-83
2022/01/04 00:55:15;;;;;;;29.08;13.05;;;8.50;99.90;;;;;;5008659;28;20059;-82
2022/01/04 00:57:41;;;;;;;27.70;13.48;;;8.50;99.90;;;;;;4995226;28;20052;-82
2022/01/04 01:00:10;;;;;;;30.17;12.63;;;8.50;99.90;;;;;;4997106;28;20049;-82
2022/01/04 01:02:36;;;;;;;27.10;13.18;;;8.50;99.90;;;;;;5041983;28;20049;-82
2022/01/04 01:05:04;;;;;;;27.45;12.98;;;8.50;99.90;;;;;;4980667;28;20041;-82
2022/01/04 01:07:30;;;;;;;29.55;12.52;;;8.50;99.90;;;;;;5043735;28;20052;-82
2022/01/04 01:12:22;;;;;;;27.65;12.50;;;8.50;99.90;;;;;;5013235;28;20083;-82
2022/01/04 01:14:48;;;;;;;27.85;11.73;;;8.50;99.90;;;;;;5009791;28;20102;-82
2022/01/04 01:17:14;;;;;;;28.85;11.27;;;8.50;99.90;;;;;;4996896;28;20033;-82
2022/01/04 01:19:40;;;;;;;25.50;11.63;;;8.50;99.90;;;;;;4996438;28;20393;-82
2022/01/04 01:22:06;;;;;;;25.25;12.35;;;8.50;99.90;;;;;;4980514;28;20057;-82
2022/01/04 01:24:33;;;;;;;22.73;11.13;;;8.50;99.90;;;;;;5027539;28;20051;-82
2022/01/04 01:26:59;;;;;;;30.85;13.30;;;8.50;99.90;;;;;;4997657;28;20558;-82
2022/01/04 01:29:25;;;;;;;26.45;12.05;;;8.50;99.90;;;;;;4979925;28;20049;-82
2022/01/04 01:31:51;;;;;;;27.63;13.07;;;8.50;99.90;;;;;;5023536;28;20053;-82
2022/01/04 01:34:17;;;;;;;29.05;12.95;;;8.50;99.90;;;;;;5012968;28;20045;-82
2022/01/04 01:36:43;;;;;;;29.30;13.30;;;8.50;99.90;;;;;;4996465;28;20100;-82
2022/01/04 01:39:10;;;;;;;31.73;12.93;;;8.50;99.90;;;;;;4994896;28;20397;-82
2022/01/04 01:41:36;;;;;;;31.83;13.02;;;8.50;99.90;;;;;;5014170;28;20052;-82
2022/01/04 01:44:02;;;;;;;29.63;12.98;;;8.50;99.90;;;;;;4999509;28;20494;-82
2022/01/04 01:46:28;;;;;;;28.52;13.75;;;8.50;99.90;;;;;;4979851;28;20701;-83
2022/01/04 01:48:54;;;;;;;25.83;12.85;;;8.50;99.90;;;;;;4997414;28;20355;-82
2022/01/04 01:51:23;;;;;;;26.65;12.40;;;8.50;99.90;;;;;;5027154;28;20087;-82
2022/01/04 01:53:50;;;;;;;27.40;13.85;;;8.40;99.90;;;;;;5012414;28;20044;-82
2022/01/04 01:56:16;;;;;;;25.80;13.63;;;8.40;99.90;;;;;;4995235;28;20044;-83
2022/01/04 01:58:42;;;;;;;35.42;13.68;;;8.40;99.90;;;;;;4995584;28;20497;-82
2022/01/04 02:01:09;;;;;;;31.20;13.95;;;8.40;99.90;;;;;;5011963;28;20057;-82
2022/01/04 02:03:36;;;;;;;29.25;13.10;;;8.40;99.90;;;;;;4988597;28;20040;-83
2022/01/04 02:06:02;;;;;;;27.38;14.13;;;8.30;99.90;;;;;;4993129;28;20397;-83
2022/01/04 02:08:29;;;;;;;30.08;13.52;;;8.30;99.90;;;;;;5039068;28;20020;-83
2022/01/04 02:10:57;;;;;;;26.48;14.07;;;8.30;99.90;;;;;;5039386;28;20048;-82
2022/01/04 02:13:24;;;;;;;25.08;14.43;;;8.30;99.90;;;;;;5011125;28;20653;-83
2022/01/04 02:15:57;;;;;;;37.53;15.05;;;8.20;99.90;;;;;;5010853;28;20053;-82
2022/01/04 02:18:23;;;;;;;31.35;14.35;;;8.20;99.90;;;;;;5045035;28;20037;-82
2022/01/04 02:20:49;;;;;;;33.47;15.30;;;8.20;99.90;;;;;;5011823;28;20040;-83
2022/01/04 02:23:16;;;;;;;27.58;14.88;;;8.20;99.90;;;;;;4993531;28;20516;-83
2022/01/04 02:25:42;;;;;;;29.63;14.63;;;8.10;99.90;;;;;;4992982;28;20530;-83
2022/01/04 02:28:08;;;;;;;34.38;15.32;;;8.10;99.90;;;;;;4996220;28;20052;-83
2022/01/04 02:30:34;;;;;;;29.30;14.38;;;8.10;99.90;;;;;;4997610;28;20528;-83
2022/01/04 02:33:01;;;;;;;31.88;15.32;;;8.10;99.90;;;;;;5007783;28;20608;-83
2022/01/04 02:35:30;;;;;;;28.55;14.45;;;8.10;99.90;;;;;;5011459;28;20045;-83
2022/01/04 02:37:58;;;;;;;29.02;15.38;;;8.10;99.90;;;;;;4992961;28;20047;-84
2022/01/04 02:40:25;;;;;;;29.73;14.25;;;8.10;99.90;;;;;;4997791;28;20497;-83
2022/01/04 02:42:52;;;;;;;26.17;13.93;;;8.10;99.90;;;;;;5026165;28;20067;-83
2022/01/04 02:45:18;;;;;;;30.80;15.45;;;8.10;99.90;;;;;;4992830;28;20519;-82
2022/01/04 02:47:45;;;;;;;32.47;16.00;;;8.10;99.90;;;;;;4978450;28;20049;-83
2022/01/04 02:50:12;;;;;;;33.85;15.38;;;8.10;99.90;;;;;;5009959;28;20467;-83
2022/01/04 02:52:38;;;;;;;31.35;16.73;;;8.10;99.90;;;;;;5022756;28;20037;-84
2022/01/04 02:55:07;;;;;;;36.70;16.20;;;8.10;99.90;;;;;;5024094;28;20048;-83
2022/01/04 02:57:35;;;;;;;30.35;16.65;;;8.00;99.90;;;;;;5012000;28;20048;-83
2022/01/04 03:00:02;;;;;;;36.03;16.55;;;8.00;99.90;;;;;;4978775;28;20498;-84
2022/01/04 03:02:28;;;;;;;33.33;16.35;;;8.00;99.90;;;;;;5040332;28;20113;-83
2022/01/04 03:04:54;;;;;;;29.67;15.93;;;8.00;99.90;;;;;;4990683;28;20052;-83
2022/01/04 03:07:21;;;;;;;35.05;17.13;;;7.90;99.90;;;;;;4977857;28;20087;-83
2022/01/04 03:09:47;;;;;;;36.20;18.42;;;7.90;99.90;;;;;;4958622;28;20053;-83
2022/01/04 03:12:13;;;;;;;43.80;18.67;;;7.90;99.90;;;;;;4959739;28;20108;-83
2022/01/04 03:14:39;;;;;;;31.17;17.80;;;7.90;99.90;;;;;;4976704;28;20038;-83
2022/01/04 03:17:06;;;;;;;35.47;18.02;;;8.00;99.90;;;;;;4970949;28;20128;-83
2022/01/04 03:19:32;;;;;;;28.30;16.98;;;8.00;99.90;;;;;;4974457;28;20045;-83
2022/01/04 03:21:58;;;;;;;33.95;17.95;;;8.00;99.90;;;;;;4970464;28;20053;-82
2022/01/04 03:24:25;;;;;;;28.58;17.92;;;8.00;99.90;;;;;;4993087;28;20056;-82
2022/01/04 03:26:51;;;;;;;34.65;18.05;;;8.00;99.90;;;;;;4995892;28;20052;-83
2022/01/04 03:29:17;;;;;;;36.20;17.98;;;8.00;99.90;;;;;;4989390;28;20053;-83
2022/01/04 03:31:44;;;;;;;34.58;18.05;;;8.00;99.90;;;;;;4977236;28;20037;-84
2022/01/04 03:34:11;;;;;;;33.15;18.38;;;8.10;99.90;;;;;;4991622;28;20052;-83
2022/01/04 03:36:37;;;;;;;32.60;18.40;;;8.10;99.90;;;;;;5024578;28;20116;-83
2022/01/04 03:39:07;;;;;;;31.65;18.60;;;8.10;99.90;;;;;;4994477;28;20045;-83
2022/01/04 03:41:37;;;;;;;31.80;17.75;;;8.10;99.90;;;;;;4976754;28;20103;-83
2022/01/04 03:44:10;;;;;;;36.63;19.30;;;8.10;99.90;;;;;;4989653;28;20064;-83
2022/01/04 03:46:36;;;;;;;;;;;8.20;99.90;;;;;;5007656;28;20060;-83
2022/01/04 03:49:04;;;;;;;35.30;18.75;;;8.20;99.90;;;;;;5006242;28;19917;-83
2022/01/04 03:51:30;;;;;;;30.80;18.02;;;8.20;99.90;;;;;;5014868;28;20045;-82
2022/01/04 03:53:57;;;;;;;37.28;17.83;;;8.20;99.90;;;;;;4992369;28;20446;-83
2022/01/04 03:56:24;;;;;;;32.33;18.33;;;8.20;99.90;;;;;;4976978;28;20584;-83
2022/01/04 03:58:50;;;;;;;35.28;19.10;;;8.20;99.90;;;;;;4977878;28;20059;-83
2022/01/04 04:01:16;;;;;;;35.28;18.38;;;8.20;99.90;;;;;;4984165;28;20050;-84
2022/01/04 04:03:42;;;;;;;37.50;18.88;;;8.20;99.90;;;;;;4992082;28;20132;-83
2022/01/04 04:06:09;;;;;;;41.30;19.95;;;8.20;99.90;;;;;;5010636;28;20081;-83
2022/01/04 04:08:35;;;;;;;33.53;19.35;;;8.20;99.90;;;;;;4994072;28;20056;-83
2022/01/04 04:11:01;;;;;;;40.00;19.20;;;8.30;99.90;;;;;;4992040;28;20053;-83
2022/01/04 04:13:27;;;;;;;32.00;19.33;;;8.30;99.90;;;;;;4997120;28;20487;-83
2022/01/04 04:15:53;;;;;;;36.08;19.73;;;8.30;99.90;;;;;;5025819;28;20045;-83
2022/01/04 04:18:19;;;;;;;36.00;18.55;;;8.30;99.90;;;;;;5007522;28;20041;-83
2022/01/04 04:20:46;;;;;;;35.83;19.50;;;8.30;99.90;;;;;;5037534;28;20080;-83
2022/01/04 04:23:12;;;;;;;28.85;19.50;;;8.30;99.90;;;;;;5011540;28;20796;-83
2022/01/04 04:25:39;;;;;;;29.33;18.17;;;8.30;99.90;;;;;;5012772;28;20045;-83
2022/01/04 04:28:05;;;;;;;32.05;20.02;;;8.30;99.90;;;;;;4996958;28;20382;-83
2022/01/04 04:30:32;;;;;;;32.70;19.77;;;8.20;99.90;;;;;;4997024;28;20041;-83
2022/01/04 04:32:58;;;;;;;35.85;20.58;;;8.20;99.90;;;;;;5012007;28;20041;-84
2022/01/04 04:35:24;;;;;;;34.15;19.40;;;8.20;99.90;;;;;;5012640;28;20048;-83
2022/01/04 04:37:50;;;;;;;34.00;20.35;;;8.20;99.90;;;;;;5008253;28;20098;-83
2022/01/04 04:40:16;;;;;;;38.17;19.90;;;8.20;99.90;;;;;;5013957;28;20041;-83
2022/01/04 04:42:42;;;;;;;33.20;19.77;;;8.20;99.90;;;;;;4979752;28;20128;-84
2022/01/04 04:45:09;;;;;;;40.45;21.13;;;8.20;99.90;;;;;;4996100;28;20045;-83
2022/01/04 04:47:36;;;;;;;32.05;19.80;;;8.20;99.90;;;;;;5011636;28;20498;-83
2022/01/04 04:50:03;;;;;;;40.70;19.77;;;8.20;99.90;;;;;;5010855;28;20075;-83
2022/01/04 04:52:30;;;;;;;35.60;21.23;;;8.20;99.90;;;;;;4983502;28;20564;-83
2022/01/04 04:54:56;;;;;;;32.83;20.80;;;8.20;99.90;;;;;;5013758;28;20040;-83
2022/01/04 04:57:22;;;;;;;34.65;20.23;;;8.20;99.90;;;;;;4980054;28;20142;-82
2022/01/04 04:59:48;;;;;;;33.88;20.15;;;8.20;99.90;;;;;;5012470;28;20053;-83
2022/01/04 05:02:14;;;;;;;37.50;21.27;;;8.20;99.90;;;;;;4978482;28;20049;-82
2022/01/04 05:04:40;;;;;;;34.63;21.50;;;8.20;99.90;;;;;;5012476;28;20049;-82
2022/01/04 05:07:06;;;;;;;32.83;19.83;;;8.20;99.90;;;;;;4976909;28;20048;-83
2022/01/04 05:09:32;;;;;;;30.20;20.75;;;8.10;99.90;;;;;;5012907;28;20131;-83
2022/01/04 05:11:58;;;;;;;29.70;19.38;;;8.20;99.90;;;;;;4979428;28;20094;-82
2022/01/04 05:14:24;;;;;;;29.95;18.73;;;8.10;99.90;;;;;;4973682;28;20056;-83
2022/01/04 05:16:51;;;;;;;36.63;20.42;;;8.10;99.90;;;;;;5026388;28;20052;-83
2022/01/04 05:19:17;;;;;;;34.28;19.13;;;8.10;99.90;;;;;;4994834;28;20080;-82
2022/01/04 05:21:43;;;;;;;30.38;20.27;;;8.10;99.90;;;;;;4994484;28;20148;-82
2022/01/04 05:24:09;;;;;;;33.33;19.08;;;8.10;99.90;;;;;;5024077;28;20090;-83
2022/01/04 05:26:35;;;;;;;33.80;18.67;;;8.10;99.90;;;;;;5028784;28;20059;-83
2022/01/04 05:29:02;;;;;;;30.67;19.42;;;8.10;99.90;;;;;;4980609;28;20041;-83
2022/01/04 05:31:29;;;;;;;32.17;19.15;;;8.10;99.90;;;;;;5014795;28;20033;-84
2022/01/04 05:33:55;;;;;;;31.20;19.48;;;8.10;99.90;;;;;;4960974;28;20049;-82
2022/01/04 05:36:21;;;;;;;34.40;20.38;;;8.10;99.90;;;;;;4995932;28;20079;-83
2022/01/04 05:38:47;;;;;;;33.45;18.63;;;8.10;99.90;;;;;;4995310;28;20037;-83
2022/01/04 05:41:14;;;;;;;27.55;18.70;;;8.00;99.90;;;;;;5009339;28;20497;-83
2022/01/04 05:43:41;;;;;;;26.73;18.92;;;8.10;99.90;;;;;;5010756;28;20055;-84
2022/01/04 05:46:07;;;;;;;35.53;20.55;;;8.00;99.90;;;;;;4994029;28;20045;-83
2022/01/04 05:48:33;;;;;;;34.28;20.70;;;8.10;99.90;;;;;;4979624;28;20061;-83
2022/01/04 05:50:59;;;;;;;32.08;19.50;;;8.10;99.90;;;;;;5030846;28;20251;-84
2022/01/04 05:53:25;;;;;;;36.17;19.38;;;8.00;99.90;;;;;;5029352;28;20033;-83
2022/01/04 05:55:51;;;;;;;30.45;19.92;;;8.10;99.90;;;;;;5018155;28;20052;-83
2022/01/04 05:58:18;;;;;;;33.45;18.75;;;8.10;99.90;;;;;;5011167;28;20046;-83
2022/01/04 06:00:44;;;;;;;36.20;20.83;;;8.10;99.90;;;;;;5005361;28;20519;-82
2022/01/04 06:03:10;;;;;;;37.70;20.30;;;8.10;99.90;;;;;;5027453;28;20075;-83
2022/01/04 06:05:36;;;;;;;27.35;19.80;;;8.10;99.90;;;;;;4993345;28;20040;-83
2022/01/04 06:08:02;;;;;;;36.60;20.73;;;8.10;99.90;;;;;;4996474;28;20048;-83
2022/01/04 06:10:36;;;;;;;35.85;21.65;;;8.10;99.90;;;;;;4995152;28;20087;-83
2022/01/04 06:15:29;;;;;;;34.33;22.30;;;8.10;99.90;;;;;;5025162;28;20041;-83
2022/01/04 06:17:55;;;;;;;40.40;23.10;;;8.10;99.90;;;;;;5011533;28;20045;-83
2022/01/04 06:20:22;;;;;;;36.33;22.52;;;8.10;99.90;;;;;;5023833;28;20127;-83
2022/01/04 06:22:52;;;;;;;34.72;22.90;;;8.10;99.90;;;;;;5025955;28;20497;-83
2022/01/04 06:25:20;;;;;;;37.75;23.48;;;8.10;99.90;;;;;;4994243;28;20044;-83
2022/01/04 06:27:48;;;;;;;36.38;22.38;;;8.00;99.90;;;;;;5010968;28;20041;-83
2022/01/04 06:30:16;;;;;;;36.13;23.30;;;8.00;99.90;;;;;;5009637;28;20056;-83
2022/01/04 06:32:43;;;;;;;41.88;23.05;;;8.00;99.90;;;;;;4994759;28;20052;-83
2022/01/04 06:35:10;;;;;;;39.05;25.17;;;8.00;99.90;;;;;;5009407;28;20143;-83
2022/01/04 06:37:36;;;;;;;41.40;25.40;;;8.00;99.90;;;;;;4990673;28;20038;-84
2022/01/04 06:40:03;;;;;;;39.60;25.05;;;8.00;99.90;;;;;;5007829;28;20037;-84
2022/01/04 06:42:29;;;;;;;43.42;24.70;;;8.00;99.90;;;;;;5020245;28;20052;-84
2022/01/04 06:44:55;;;;;;;46.50;24.83;;;8.00;99.90;;;;;;5007923;28;20132;-83
2022/01/04 06:47:21;;;;;;;38.03;26.15;;;8.00;99.90;;;;;;4974823;28;20124;-83
2022/01/04 06:49:47;;;;;;;45.70;26.38;;;8.00;99.90;;;;;;5007886;28;20045;-84
2022/01/04 06:52:14;;;;;;;40.42;27.00;;;8.00;99.90;;;;;;5006254;28;20200;-83
2022/01/04 06:54:40;;;;;;;42.53;27.83;;;8.00;99.90;;;;;;5046403;28;20045;-84
2022/01/04 06:57:06;;;;;;;44.88;27.70;;;8.00;99.90;;;;;;4994009;28;20063;-84
2022/01/04 06:59:32;;;;;;;44.28;28.10;;;8.00;99.90;;;;;;5014098;28;20045;-83
2022/01/04 07:02:00;;;;;;;46.30;27.92;;;8.00;99.90;;;;;;5014641;28;20055;-83
2022/01/04 07:04:26;;;;;;;44.28;28.23;;;7.90;99.90;;;;;;4977845;28;20076;-83
2022/01/04 07:06:52;;;;;;;43.22;26.90;;;8.00;99.90;;;;;;4997427;28;20056;-84
2022/01/04 07:09:18;;;;;;;47.45;28.05;;;8.00;99.90;;;;;;5026552;28;20065;-83
2022/01/04 07:11:45;;;;;;;46.28;30.13;;;7.90;99.90;;;;;;4980616;28;20186;-83
2022/01/04 07:14:11;;;;;;;51.42;30.65;;;7.90;99.90;;;;;;4994374;28;20106;-84
2022/01/04 07:16:37;;;;;;;50.65;29.60;;;7.90;99.90;;;;;;5042468;28;20511;-83
2022/01/04 07:19:03;;;;;;;51.70;30.73;;;7.90;99.90;;;;;;5010726;28;20067;-83
2022/01/04 07:21:29;;;;;;;54.63;31.73;;;7.90;99.90;;;;;;5010793;28;21058;-84
2022/01/04 07:23:55;;;;;;;61.83;33.72;;;7.90;99.90;;;;;;5010353;28;20052;-85
2022/01/04 07:26:22;;;;;;;56.67;30.55;;;7.90;99.90;;;;;;5012696;28;20115;-86
2022/01/04 07:28:49;;;;;;;64.80;34.10;;;7.90;99.90;;;;;;4994025;28;20040;-85
2022/01/04 07:31:16;;;;;;;56.28;32.67;;;7.90;99.90;;;;;;5042327;28;20797;-84
2022/01/04 07:33:44;;;;;;;60.22;34.47;;;7.90;99.90;;;;;;5009133;28;20423;-83
2022/01/04 07:36:11;;;;;;;56.13;31.00;;;7.80;99.90;;;;;;5026605;28;20728;-85
2022/01/04 07:38:37;;;;;;;58.03;32.22;;;7.80;99.90;;;;;;5015722;28;20509;-85
2022/01/04 07:41:04;;;;;;;57.45;31.40;;;7.80;99.90;;;;;;5030305;28;20037;-83
2022/01/04 07:43:32;;;;;;;57.33;31.70;;;7.90;99.90;;;;;;4997770;28;20169;-83
2022/01/04 07:45:58;;;;;;;59.83;33.22;;;7.80;99.90;;;;;;5052277;28;20058;-84
2022/01/04 07:48:24;;;;;;;61.88;33.72;;;7.90;99.90;;;;;;5049150;28;20045;-83
2022/01/04 07:50:55;;;;;;;52.80;32.67;;;7.90;99.90;;;;;;5018500;28;20067;-83
2022/01/04 07:53:22;;;;;;;50.42;31.55;;;7.90;99.90;;;;;;4983436;28;20158;-83
2022/01/04 07:55:48;;;;;;;53.05;31.27;;;7.80;99.90;;;;;;5015284;28;20397;-84
2022/01/04 07:58:15;;;;;;;49.70;32.13;;;7.80;99.90;;;;;;5013194;28;20067;-83
2022/01/04 08:00:41;;;;;;;51.95;29.77;;;7.80;99.90;;;;;;5013245;28;20050;-83
2022/01/04 08:03:07;;;;;;;45.25;29.77;;;7.80;99.90;;;;;;5005751;28;20044;-84
2022/01/04 08:05:33;;;;;;;47.17;28.02;;;7.80;99.90;;;;;;5000170;28;20049;-85
2022/01/04 08:08:00;;;;;;;44.85;27.83;;;7.80;99.90;;;;;;4998867;28;20051;-82
2022/01/04 08:10:26;;;;;;;40.90;26.33;;;7.80;99.90;;;;;;5012395;28;20046;-85
2022/01/04 08:12:52;;;;;;;41.70;26.65;;;7.80;99.90;;;;;;5011663;28;20044;-85
2022/01/04 08:15:18;;;;;;;43.28;28.55;;;7.80;99.90;;;;;;5004927;28;20042;-83
2022/01/04 08:17:44;;;;;;;48.22;26.88;;;7.80;99.90;;;;;;4993698;28;20040;-82
2022/01/04 08:20:11;;;;;;;40.40;28.00;;;7.80;99.90;;;;;;5037754;28;20053;-83
2022/01/04 08:22:37;;;;;;;45.17;28.60;;;7.80;99.90;;;;;;5007698;28;20080;-83
2022/01/04 08:25:10;;;;;;;45.53;30.63;;;7.80;99.90;;;;;;5009598;28;20049;-82
2022/01/04 08:27:37;;;;;;;;;;;7.80;99.90;;;;;;5008818;28;20131;-82
2022/01/04 08:30:05;;;;;;;47.00;28.73;;;7.80;99.90;;;;;;5059737;28;19920;-83
2022/01/04 08:32:31;;;;;;;50.30;30.65;;;7.80;99.90;;;;;;4981603;28;20045;-84
2022/01/04 08:34:57;;;;;;;51.22;31.55;;;7.80;99.90;;;;;;5020748;28;20052;-83
2022/01/04 08:37:24;;;;;;;54.38;30.25;;;7.90;99.90;;;;;;5009408;28;20053;-84
2022/01/04 08:39:50;;;;;;;49.75;30.55;;;7.90;99.90;;;;;;5010332;28;20052;-84
2022/01/04 08:42:17;;;;;;;49.17;31.25;;;7.90;99.90;;;;;;5007139;28;20057;-84
2022/01/04 08:44:43;;;;;;;47.35;29.45;;;7.90;99.90;;;;;;4993171;28;20101;-82
2022/01/04 08:47:10;;;;;;;52.25;30.40;;;7.90;99.90;;;;;;4994912;28;20141;-82
2022/01/04 08:49:37;;;;;;;46.70;27.83;;;7.90;99.90;;;;;;5009736;28;20063;-82
2022/01/04 08:52:07;;;;;;;47.70;30.15;;;7.80;99.90;;;;;;4992975;28;20530;-82
2022/01/04 08:54:34;;;;;;;49.83;28.30;;;7.90;99.90;;;;;;5012033;28;20398;-82
2022/01/04 08:57:01;;;;;;;51.47;29.05;;;7.80;99.90;;;;;;4994157;28;20079;-82
2022/01/04 08:59:28;;;;;;;49.22;29.27;;;7.90;99.90;;;;;;5023724;28;20076;-83
2022/01/04 09:01:58;;;;;;;50.45;30.55;;;7.90;99.90;;;;;;5018707;28;20051;-82
2022/01/04 09:04:24;;;;;;;46.80;28.52;;;7.90;99.90;;;;;;5040106;28;20183;-82
2022/01/04 09:06:51;;;;;;;45.00;28.73;;;7.90;99.90;;;;;;5025247;28;20072;-82
2022/01/04 09:09:17;;;;;;;48.20;28.52;;;7.90;99.90;;;;;;4992639;28;20047;-83
2022/01/04 09:11:44;;;;;;;43.97;27.33;;;7.90;99.90;;;;;;4978140;28;20052;-82
2022/01/04 09:19:38;;;;;;;38.67;24.05;;;7.90;99.90;;;;;;4991880;28;20493;-82
2022/01/04 09:22:05;;;;;;;35.33;19.80;;;7.90;99.90;;;;;;5021671;28;20044;-82
2022/01/04 09:24:33;;;;;;;27.83;15.68;;;7.90;99.90;;;;;;5010592;28;20044;-82
2022/01/04 09:26:59;;;;;;;21.98;12.27;;;7.80;99.90;;;;;;4994722;28;20392;-84
2022/01/04 09:29:25;;;;;;;19.85;10.70;;;7.70;99.90;;;;;;5011095;28;20501;-82
2022/01/04 09:31:55;;;;;;;21.63;11.38;;;7.70;99.90;;;;;;5018559;28;20040;-83
2022/01/04 09:34:21;;;;;;;26.00;14.65;;;7.70;99.90;;;;;;5029788;28;20075;-83
2022/01/04 09:36:48;;;;;;;34.97;18.92;;;7.60;99.90;;;;;;4977634;28;20091;-83
2022/01/04 09:39:24;;;;;;;34.45;20.95;;;7.60;99.90;;;;;;4978106;28;20052;-83
2022/01/04 09:41:53;;;;;;;38.67;21.38;;;7.70;99.90;;;;;;5012603;28;20044;-83
2022/01/04 09:44:22;;;;;;;37.90;20.48;;;7.70;99.90;;;;;;5021179;28;20135;-82
2022/01/04 09:46:48;;;;;;;39.30;19.98;;;7.80;99.90;;;;;;5021050;28;20047;-84
2022/01/04 09:49:16;;;;;;;35.28;20.90;;;7.80;99.90;;;;;;4996357;28;20041;-83
2022/01/04 09:51:44;;;;;;;34.67;21.00;;;7.80;99.90;;;;;;5027481;28;20046;-84
2022/01/04 09:54:10;;;;;;;35.17;20.88;;;7.80;99.90;;;;;;5043355;28;20049;-83
2022/01/04 09:56:37;;;;;;;31.48;18.33;;;7.80;99.90;;;;;;5012751;28;20102;-83
2022/01/04 09:59:07;;;;;;;28.33;15.98;;;7.80;99.90;;;;;;5015967;28;20049;-83
2022/01/04 10:01:36;;;;;;;33.00;18.52;;;7.80;99.90;;;;;;5007345;28;20758;-82
2022/01/04 10:04:03;;;;;;;27.23;16.63;;;7.80;99.90;;;;;;5011642;28;20048;-84
2022/01/04 10:06:29;;;;;;;24.92;14.65;;;7.80;99.90;;;;;;5025817;28;20146;-84
2022/01/04 10:08:59;;;;;;;24.05;15.60;;;7.80;99.90;;;;;;4975314;28;20131;-84
2022/01/04 10:11:32;;;;;;;22.25;14.15;;;7.80;99.90;;;;;;5010373;28;20051;-84
2022/01/04 10:14:00;;;;;;;21.77;12.55;;;7.80;99.90;;;;;;4989268;28;20493;-83
2022/01/04 10:16:28;;;;;;;21.85;13.35;;;7.80;99.90;;;;;;4995142;28;20420;-82
2022/01/04 10:18:54;;;;;;;20.98;12.52;;;7.80;99.90;;;;;;4991703;28;20160;-84
2022/01/04 10:21:21;;;;;;;21.52;13.07;;;7.90;99.90;;;;;;4983334;28;20094;-83
2022/01/04 10:23:56;;;;;;;20.27;12.73;;;7.90;99.90;;;;;;5010441;28;20049;-82
2022/01/04 10:26:37;;;;;;;29.13;15.10;;;7.90;99.90;;;;;;5033747;28;20070;-84
2022/01/04 10:29:20;;;;;;;12.00;6.63;;;7.90;99.90;;;;;;5026063;28;20049;-82
2022/01/04 10:31:48;;;;;;;12.98;4.40;;;7.70;99.90;;;;;;5018953;28;20045;-83
2022/01/04 10:34:15;;;;;;;9.93;4.10;;;7.60;99.90;;;;;;5011213;28;20080;-84
2022/01/04 10:36:41;;;;;;;13.65;3.50;;;7.50;99.90;;;;;;5012200;28;20128;-83
2022/01/04 10:39:09;;;;;;;12.15;4.03;;;7.40;99.90;;;;;;5045713;28;20041;-83
2022/01/04 10:41:35;;;;;;;11.20;4.55;;;7.40;99.90;;;;;;5012742;28;20128;-83
2022/01/04 10:44:09;;;;;;;18.08;4.90;;;7.30;99.90;;;;;;4997012;28;20049;-85
2022/01/04 10:46:43;;;;;;;10.77;5.10;;;7.30;99.90;;;;;;4993945;28;20114;-84
2022/01/04 10:49:19;;;;;;;6.15;1.63;;;7.20;99.90;;;;;;5058868;28;20080;-84
2022/01/04 10:52:02;;;;;;;3.92;1.98;;;7.20;99.90;;;;;;5029372;28;20064;-82
2022/01/04 10:54:29;;;;;;;9.15;2.55;;;7.10;99.90;;;;;;5028860;28;20047;-85
2022/01/04 10:57:04;;;;;;;8.43;1.83;;;7.10;99.90;;;;;;4995986;28;20048;-82
2022/01/04 10:59:30;;;;;;;5.68;1.77;;;7.10;99.90;;;;;;5024050;28;20397;-82
2022/01/04 11:01:56;;;;;;;8.70;2.33;;;7.10;99.90;;;;;;5011838;28;20120;-82
2022/01/04 11:04:23;;;;;;;7.00;2.70;;;7.10;99.90;;;;;;5013130;28;20102;-83
2022/01/04 11:06:56;;;;;;;7.13;1.75;;;7.10;99.90;;;;;;5029544;28;20037;-82
2022/01/04 11:09:22;;;;;;;5.03;1.48;;;7.10;99.90;;;;;;5030450;28;20048;-84
2022/01/04 11:11:48;;;;;;;5.20;1.83;;;7.10;99.90;;;;;;5000969;28;20128;-83
2022/01/04 11:14:15;;;;;;;10.23;4.30;;;7.10;99.90;;;;;;4996009;28;20053;-83
2022/01/04 11:16:42;;;;;;;4.55;1.92;;;7.10;99.90;;;;;;5012787;28;20047;-83
2022/01/04 11:19:09;;;;;;;8.63;3.75;;;7.00;99.90;;;;;;5013856;28;20098;-82
2022/01/04 11:21:41;;;;;;;9.70;1.83;;;7.00;99.90;;;;;;5013183;28;20481;-83
2022/01/04 11:24:17;;;;;;;8.70;4.43;;;7.10;99.90;;;;;;5013600;28;20073;-83
2022/01/04 11:26:46;;;;;;;6.95;2.42;;;7.10;99.90;;;;;;5013048;28;20062;-83
2022/01/04 11:29:14;;;;;;;10.50;5.03;;;7.10;99.90;;;;;;5013498;28;20493;-83
2022/01/04 11:31:48;;;;;;;4.20;2.17;;;7.00;99.90;;;;;;5013002;28;20060;-83
2022/01/04 11:34:17;;;;;;;7.85;1.92;;;7.00;99.90;;;;;;5012818;28;20072;-82
2022/01/04 11:36:50;;;;;;;19.67;12.80;;;7.00;99.90;;;;;;5013040;28;20052;-83
2022/01/04 11:39:29;;;;;;;2.72;1.33;;;6.90;99.90;;;;;;5014352;28;20045;-83
2022/01/04 11:41:57;;;;;;;4.15;1.00;;;6.80;99.90;;;;;;5064523;28;20037;-83
2022/01/04 11:44:25;;;;;;;8.10;5.22;;;6.70;99.90;;;;;;5021428;28;20485;-83
2022/01/04 11:47:05;;;;;;;16.90;10.27;;;6.70;99.90;;;;;;5022370;28;20036;-83
2022/01/04 11:49:36;;;;;;;6.97;3.28;;;6.70;99.90;;;;;;5001025;28;20036;-83
2022/01/04 11:52:04;;;;;;;6.72;1.40;;;6.60;99.90;;;;;;5017067;28;20065;-83
2022/01/04 11:54:32;;;;;;;2.85;1.00;;;6.60;99.90;;;;;;5000652;28;20036;-83
2022/01/04 11:57:01;;;;;;;4.95;1.02;;;6.60;99.90;;;;;;5016647;28;20115;-83
2022/01/04 11:59:36;;;;;;;5.80;1.38;;;6.60;99.90;;;;;;5016455;28;20041;-83
2022/01/04 12:02:25;;;;;;;4.43;2.03;;;6.50;99.90;;;;;;5014681;28;20107;-83
2022/01/04 12:05:04;;;;;;;3.63;1.15;;;6.50;99.90;;;;;;4997697;28;20041;-83
2022/01/04 12:07:41;;;;;;;6.93;1.60;;;6.50;99.90;;;;;;5012561;28;20052;-82
2022/01/04 12:10:22;;;;;;;4.45;1.50;;;6.40;99.90;;;;;;5015402;28;20045;-83
2022/01/04 12:13:16;;;;;;;5.95;1.55;;;6.50;99.90;;;;;;5015156;28;20033;-83
2022/01/04 12:15:48;;;;;;;3.58;1.30;;;6.50;99.90;;;;;;5014235;28;20139;-83
2022/01/04 12:18:23;;;;;;;6.53;1.45;;;6.40;99.90;;;;;;4998955;28;20512;-83
2022/01/04 12:20:58;;;;;;;3.90;1.27;;;6.40;99.90;;;;;;5000083;28;20052;-83
2022/01/04 12:23:29;;;;;;;6.30;2.47;;;6.40;99.90;;;;;;5013893;28;20566;-83
2022/01/04 12:26:04;;;;;;;8.20;1.75;;;6.40;99.90;;;;;;4998461;28;20060;-84
2022/01/04 12:28:30;;;;;;;7.55;2.50;;;6.20;99.90;;;;;;4997361;28;20515;-83
2022/01/04 12:31:23;;;;;;;5.13;2.03;;;6.00;99.90;;;;;;5048153;28;21063;-83
2022/01/04 12:33:51;;;;;;;9.07;2.15;;;5.90;99.90;;;;;;5014913;28;20441;-85
2022/01/04 12:36:35;;;;;;;7.07;1.55;;;5.80;99.90;;;;;;4998203;28;20500;-85
2022/01/04 12:39:17;;;;;;;2.83;1.35;;;5.90;99.90;;;;;;5024644;28;20144;-83
2022/01/04 12:41:45;;;;;;;4.35;1.00;;;5.80;99.90;;;;;;5006088;28;20131;-84
2022/01/04 12:44:14;;;;;;;3.50;1.05;;;5.80;99.90;;;;;;4996823;28;20072;-84
2022/01/04 12:46:45;;;;;;;3.50;1.05;;;6.00;99.90;;;;;;5032276;28;20588;-83
2022/01/04 12:49:16;;;;;;;10.65;2.00;;;6.00;99.90;;;;;;4994443;28;20037;-84
2022/01/04 12:51:50;;;;;;;6.40;1.30;;;6.20;99.90;;;;;;5059238;28;20080;-84
2022/01/04 12:54:19;;;;;;;4.63;1.00;;;6.20;99.90;;;;;;5019803;28;20041;-84
2022/01/04 12:57:00;;;;;;;5.38;1.33;;;6.30;99.90;;;;;;5007333;28;20072;-83